Time;durP1;ratioP1;P1;durP2;ratioP2;P2;SDS_P1;SDS_P2;PMS_P1;PMS_P2;Temp;Humidity;BMP_temperature;BMP_pressure;BME280_temperature;BME280_humidity;BME280_pressure;Samples;Min_cycle;Max_cycle;Signal;HPM_P1;HPM_P2
2021/05/17 00:01:58;;;;;;;1.35;1.25;;;9.10;99.90;;;;;;4861719;29;20646;-80
2021/05/17 00:04:33;;;;;;;1.98;1.50;;;9.10;99.90;;;;;;4861046;29;20188;-80
2021/05/17 00:07:00;;;;;;;3.05;1.50;;;9.10;99.90;;;;;;4861598;29;20186;-80
2021/05/17 00:09:27;;;;;;;1.33;1.20;;;9.20;99.90;;;;;;4861443;29;20556;-79
2021/05/17 00:11:53;;;;;;;2.17;1.30;;;9.20;99.90;;;;;;4875830;29;20193;-81
2021/05/17 00:14:20;;;;;;;1.70;1.60;;;9.20;99.90;;;;;;4861081;29;20598;-79
2021/05/17 00:16:46;;;;;;;2.47;1.80;;;9.20;99.90;;;;;;4861302;29;20626;-81
2021/05/17 00:19:12;;;;;;;2.28;2.08;;;9.20;99.90;;;;;;4860066;29;20180;-79
2021/05/17 00:21:39;;;;;;;2.78;1.77;;;9.30;99.90;;;;;;4861148;29;20289;-79
2021/05/17 00:24:05;;;;;;;2.60;1.60;;;9.30;99.90;;;;;;4861168;29;20218;-82
2021/05/17 00:26:31;;;;;;;3.33;1.70;;;9.20;99.90;;;;;;4860357;29;20583;-81
2021/05/17 00:28:57;;;;;;;2.23;1.60;;;9.20;99.90;;;;;;4861366;29;20176;-80
2021/05/17 00:31:23;;;;;;;2.77;1.43;;;9.20;99.90;;;;;;4875456;29;20452;-86
2021/05/17 00:33:49;;;;;;;4.70;1.80;;;9.30;99.90;;;;;;4861252;29;20550;-87
2021/05/17 00:36:16;;;;;;;2.73;1.30;;;9.20;99.90;;;;;;4860779;29;20583;-85
2021/05/17 00:38:42;;;;;;;2.13;1.42;;;9.30;99.90;;;;;;4861083;29;20425;-84
2021/05/17 00:41:08;;;;;;;1.97;1.57;;;9.30;99.90;;;;;;4861217;29;20556;-88
2021/05/17 00:43:37;;;;;;;3.10;1.73;;;9.40;99.90;;;;;;4860320;29;20180;-82
2021/05/17 00:46:08;;;;;;;2.08;1.75;;;9.50;99.90;;;;;;4859458;29;20208;-85
2021/05/17 00:48:35;;;;;;;3.05;1.67;;;9.40;99.90;;;;;;4861277;29;20382;-85
2021/05/17 00:51:06;;;;;;;2.63;2.15;;;9.40;99.90;;;;;;4861022;29;20181;-86
2021/05/17 00:53:32;;;;;;;1.65;1.50;;;9.40;99.90;;;;;;4860185;29;20524;-83
2021/05/17 00:55:58;;;;;;;2.47;1.73;;;9.50;99.90;;;;;;4860614;29;20203;-87
2021/05/17 00:58:25;;;;;;;3.67;2.10;;;9.50;99.90;;;;;;4860866;29;20219;-86
2021/05/17 01:00:51;;;;;;;3.70;2.20;;;9.50;99.90;;;;;;4861271;29;20180;-84
2021/05/17 01:03:17;;;;;;;7.57;2.00;;;9.50;99.90;;;;;;4861820;29;20214;-82
2021/05/17 01:05:43;;;;;;;2.73;2.07;;;9.50;99.90;;;;;;4860837;29;20231;-84
2021/05/17 01:08:12;;;;;;;2.13;1.57;;;9.50;99.90;;;;;;4866224;29;20290;-83
2021/05/17 01:10:43;;;;;;;3.15;1.85;;;9.40;99.90;;;;;;4865669;29;20267;-84
2021/05/17 01:13:09;;;;;;;3.50;1.92;;;9.40;99.90;;;;;;4860881;29;20252;-84
2021/05/17 01:15:36;;;;;;;2.72;1.98;;;9.40;99.90;;;;;;4860429;29;20314;-85
2021/05/17 01:18:02;;;;;;;4.90;1.73;;;9.40;99.90;;;;;;4859543;29;20721;-84
2021/05/17 01:20:32;;;;;;;4.80;1.85;;;9.50;99.90;;;;;;4860907;29;20280;-83
2021/05/17 01:25:52;;;;;;;2.70;1.90;;;9.50;99.90;;;;;;4860717;29;20197;-85
2021/05/17 01:28:22;;;;;;;2.13;1.92;;;9.50;99.90;;;;;;4860678;29;20259;-86
2021/05/17 01:30:54;;;;;;;3.22;2.40;;;9.50;99.90;;;;;;4860720;29;20236;-86
2021/05/17 01:33:20;;;;;;;5.07;2.55;;;9.40;99.90;;;;;;4860832;29;20549;-85
2021/05/17 01:35:49;;;;;;;4.47;1.80;;;9.50;99.90;;;;;;4860431;29;20208;-85
2021/05/17 01:38:19;;;;;;;5.22;2.00;;;9.50;99.90;;;;;;4863961;29;20552;-86
2021/05/17 01:40:47;;;;;;;2.35;1.80;;;9.50;99.90;;;;;;4864223;29;20184;-82
2021/05/17 01:43:14;;;;;;;3.05;2.25;;;9.50;99.90;;;;;;4864346;29;20630;-87
2021/05/17 01:45:41;;;;;;;2.10;1.65;;;9.60;99.90;;;;;;4862396;29;20212;-84
2021/05/17 01:48:08;;;;;;;1.67;1.38;;;9.60;99.90;;;;;;4863927;29;20180;-83
2021/05/17 01:50:34;;;;;;;2.15;1.48;;;9.60;99.90;;;;;;4864077;29;20192;-85
2021/05/17 01:53:00;;;;;;;1.63;1.52;;;9.50;99.90;;;;;;4863929;29;20244;-87
2021/05/17 01:55:26;;;;;;;3.30;1.90;;;9.50;99.90;;;;;;4877869;29;20557;-83
2021/05/17 01:58:21;;;;;;;1.90;1.80;;;9.50;99.90;;;;;;4863714;29;20690;-85
2021/05/17 02:00:47;;;;;;;3.10;1.80;;;9.50;99.90;;;;;;4863876;29;20413;-84
2021/05/17 02:03:12;;;;;;;4.30;1.40;;;9.50;99.90;;;;;;4863695;29;20657;-85
2021/05/17 02:05:38;;;;;;;2.40;1.47;;;9.50;99.90;;;;;;4878072;29;20204;-83
2021/05/17 02:08:09;;;;;;;3.60;1.50;;;9.50;99.90;;;;;;4863717;29;20184;-85
2021/05/17 02:10:35;;;;;;;2.60;1.98;;;9.50;99.90;;;;;;4878075;29;20331;-85
2021/05/17 02:13:03;;;;;;;2.63;1.57;;;9.50;99.90;;;;;;4863554;29;20224;-86
2021/05/17 02:15:29;;;;;;;2.40;1.60;;;9.50;99.90;;;;;;4863152;29;20550;-86
2021/05/17 02:18:09;;;;;;;1.70;1.60;;;9.50;99.90;;;;;;4863337;29;20223;-85
2021/05/17 02:20:37;;;;;;;2.15;1.92;;;9.50;99.90;;;;;;4863464;29;20180;-84
2021/05/17 02:23:09;;;;;;;2.33;1.80;;;9.50;99.90;;;;;;4863349;29;20567;-84
2021/05/17 02:25:55;;;;;;;1.98;1.80;;;9.50;99.90;;;;;;4877239;29;20215;-85
2021/05/17 02:28:21;;;;;;;2.83;1.95;;;9.40;99.90;;;;;;4863027;29;20200;-84
2021/05/17 02:30:47;;;;;;;3.57;1.70;;;9.30;99.90;;;;;;4863250;29;20200;-84
2021/05/17 02:33:14;;;;;;;2.75;1.80;;;9.30;99.90;;;;;;4863191;29;20576;-83
2021/05/17 02:35:40;;;;;;;3.05;1.60;;;9.30;99.90;;;;;;4863005;29;20582;-84
2021/05/17 02:38:07;;;;;;;2.28;2.03;;;9.20;99.90;;;;;;4863033;29;20230;-82
2021/05/17 02:40:33;;;;;;;4.03;2.00;;;9.30;99.90;;;;;;4863106;29;20528;-84
2021/05/17 02:43:04;;;;;;;2.78;1.60;;;9.30;99.90;;;;;;4863058;29;20236;-84
2021/05/17 02:45:31;;;;;;;2.40;2.10;;;9.30;99.90;;;;;;4861562;29;20576;-84
2021/05/17 02:47:59;;;;;;;3.60;1.90;;;9.30;99.90;;;;;;4876532;29;20188;-82
2021/05/17 02:50:39;;;;;;;2.88;2.58;;;9.30;99.90;;;;;;4862847;29;20180;-82
2021/05/17 02:53:28;;;;;;;2.92;1.90;;;9.30;99.90;;;;;;4862873;29;20180;-82
2021/05/17 02:55:56;;;;;;;2.78;1.92;;;9.30;99.90;;;;;;4861389;29;20207;-86
2021/05/17 02:58:23;;;;;;;1.75;1.63;;;9.30;99.90;;;;;;4861904;29;20272;-84
2021/05/17 03:01:09;;;;;;;3.25;1.70;;;9.30;99.90;;;;;;4862769;29;20184;-85
2021/05/17 03:03:42;;;;;;;5.93;1.90;;;9.40;99.90;;;;;;4877053;29;20188;-85
2021/05/17 03:06:17;;;;;;;1.98;1.85;;;9.40;99.90;;;;;;4862434;29;20188;-85
2021/05/17 03:09:07;;;;;;;2.40;1.98;;;9.40;99.90;;;;;;4861406;29;20223;-83
2021/05/17 03:11:39;;;;;;;2.65;2.15;;;9.40;99.90;;;;;;4862679;29;20177;-83
2021/05/17 03:14:07;;;;;;;4.20;1.50;;;9.40;99.90;;;;;;4862359;29;20196;-86
2021/05/17 03:16:33;;;;;;;10.45;2.20;;;9.40;99.90;;;;;;4862191;29;20216;-84
2021/05/17 03:19:00;;;;;;;2.13;1.83;;;9.40;99.90;;;;;;4862340;29;20221;-83
2021/05/17 03:21:28;;;;;;;2.47;1.75;;;9.50;99.90;;;;;;4862579;29;20176;-82
2021/05/17 03:23:55;;;;;;;4.78;1.60;;;9.50;99.90;;;;;;4861250;29;20259;-83
2021/05/17 03:26:23;;;;;;;2.40;1.80;;;9.40;99.90;;;;;;4876155;29;20291;-82
2021/05/17 03:28:50;;;;;;;2.60;1.98;;;9.40;99.90;;;;;;4862141;29;20263;-82
2021/05/17 03:31:16;;;;;;;2.75;1.95;;;9.40;99.90;;;;;;4862216;29;20267;-84
2021/05/17 03:33:41;;;;;;;3.17;1.90;;;9.40;99.90;;;;;;4862192;29;20271;-81
2021/05/17 03:36:07;;;;;;;2.27;1.90;;;9.40;99.90;;;;;;4861767;29;20505;-81
2021/05/17 03:38:33;;;;;;;4.27;2.00;;;9.40;99.90;;;;;;4860818;29;20251;-83
2021/05/17 03:40:59;;;;;;;2.30;2.10;;;9.40;99.90;;;;;;4861888;29;20207;-84
2021/05/17 03:43:25;;;;;;;2.57;2.20;;;9.40;99.90;;;;;;4861938;29;20180;-85
2021/05/17 03:45:51;;;;;;;2.67;1.90;;;9.40;99.90;;;;;;4861585;29;20211;-86
2021/05/17 03:48:18;;;;;;;4.32;2.63;;;9.40;99.90;;;;;;4861860;29;20193;-83
2021/05/17 03:50:44;;;;;;;3.38;2.20;;;9.50;99.90;;;;;;4861813;29;20198;-83
2021/05/17 03:53:09;;;;;;;2.17;1.90;;;9.50;99.90;;;;;;4861910;29;20184;-85
2021/05/17 03:55:35;;;;;;;2.57;2.37;;;9.60;99.90;;;;;;4860710;29;20204;-82
2021/05/17 03:58:01;;;;;;;2.57;2.00;;;9.60;99.90;;;;;;4876012;29;20222;-83
2021/05/17 04:00:28;;;;;;;2.87;2.37;;;9.60;99.90;;;;;;4860929;29;20252;-82
2021/05/17 04:03:00;;;;;;;2.63;2.20;;;9.60;99.90;;;;;;4861638;29;20228;-81
2021/05/17 04:05:36;;;;;;;5.72;4.55;;;9.60;99.90;;;;;;4861147;29;20232;-83
2021/05/17 04:13:23;;;;;;;5.97;2.42;;;9.70;99.90;;;;;;4861733;29;20188;-84
2021/05/17 04:15:50;;;;;;;3.95;2.38;;;9.70;99.90;;;;;;4861065;29;20263;-81
2021/05/17 04:18:20;;;;;;;3.55;2.20;;;9.70;99.90;;;;;;4860369;29;20286;-82
2021/05/17 04:20:46;;;;;;;2.50;1.95;;;9.70;99.90;;;;;;4861448;29;20180;-82
2021/05/17 04:23:12;;;;;;;2.50;2.30;;;9.70;99.90;;;;;;4861219;29;20185;-84
2021/05/17 04:25:38;;;;;;;3.33;2.35;;;9.80;99.90;;;;;;4844406;29;20211;-83
2021/05/17 04:28:04;;;;;;;4.70;2.10;;;9.80;99.90;;;;;;4861734;29;20566;-83
2021/05/17 04:30:30;;;;;;;3.50;1.90;;;9.80;99.90;;;;;;4860648;29;20192;-81
2021/05/17 04:32:56;;;;;;;3.08;2.28;;;9.90;99.90;;;;;;4865242;29;20277;-82
2021/05/17 04:35:21;;;;;;;2.70;1.80;;;10.00;99.90;;;;;;4865687;29;20239;-81
2021/05/17 04:37:47;;;;;;;3.60;2.30;;;10.10;99.90;;;;;;4860999;29;20212;-81
2021/05/17 04:40:13;;;;;;;3.33;2.03;;;10.10;99.90;;;;;;4861120;29;20922;-84
2021/05/17 04:42:41;;;;;;;4.22;2.00;;;10.20;99.90;;;;;;4861010;29;20260;-80
2021/05/17 04:45:07;;;;;;;3.17;1.85;;;10.20;99.90;;;;;;4859596;29;20204;-81
2021/05/17 04:47:32;;;;;;;3.15;2.38;;;10.20;99.90;;;;;;4860866;29;20180;-82
2021/05/17 04:49:58;;;;;;;3.77;1.67;;;10.30;99.90;;;;;;4860981;29;20200;-81
2021/05/17 04:52:24;;;;;;;6.20;1.80;;;10.30;99.90;;;;;;4859796;29;20271;-83
2021/05/17 04:54:49;;;;;;;2.23;1.80;;;10.40;99.90;;;;;;4875094;29;20349;-82
2021/05/17 04:57:15;;;;;;;2.87;1.70;;;10.50;99.90;;;;;;4860785;29;20259;-81
2021/05/17 04:59:41;;;;;;;6.30;1.73;;;10.50;99.90;;;;;;4860876;29;20188;-82
2021/05/17 05:02:06;;;;;;;5.77;2.10;;;10.50;99.90;;;;;;4860991;29;20739;-83
2021/05/17 05:04:32;;;;;;;2.60;2.10;;;10.50;99.90;;;;;;4860502;29;20187;-82
2021/05/17 05:06:58;;;;;;;2.37;2.17;;;10.50;99.90;;;;;;4860927;29;20801;-83
2021/05/17 05:09:24;;;;;;;2.37;1.70;;;10.50;99.90;;;;;;4860776;29;20188;-84
2021/05/17 05:11:50;;;;;;;1.70;1.60;;;10.60;99.90;;;;;;4862674;29;20551;-84
2021/05/17 05:14:16;;;;;;;3.20;2.17;;;10.60;99.90;;;;;;4863127;29;20192;-82
2021/05/17 05:16:41;;;;;;;3.40;1.70;;;10.70;99.90;;;;;;4864363;29;20216;-84
2021/05/17 05:19:07;;;;;;;3.17;1.53;;;10.80;99.90;;;;;;4864754;29;20263;-82
2021/05/17 05:21:34;;;;;;;1.63;1.27;;;10.80;99.90;;;;;;4864422;29;20189;-84
2021/05/17 05:23:59;;;;;;;3.08;1.33;;;10.90;99.90;;;;;;4864267;29;20180;-84
2021/05/17 05:34:03;;;;;;;3.97;1.37;;;11.10;99.90;;;;;;4863139;29;20291;-83
2021/05/17 05:36:29;;;;;;;2.10;1.50;;;11.20;99.90;;;;;;4863605;29;20196;-80
2021/05/17 05:38:55;;;;;;;2.30;1.30;;;11.40;99.90;;;;;;4864074;29;20187;-80
2021/05/17 05:41:20;;;;;;;2.40;1.17;;;11.40;99.90;;;;;;4864188;29;20185;-80
2021/05/17 05:43:46;;;;;;;2.50;1.43;;;11.40;99.90;;;;;;4863931;29;20173;-81
2021/05/17 05:46:11;;;;;;;2.80;1.40;;;11.50;99.90;;;;;;4877816;29;20241;-81
2021/05/17 05:48:47;;;;;;;1.93;1.40;;;11.50;99.90;;;;;;4863911;29;20180;-82
2021/05/17 05:51:24;;;;;;;2.70;1.27;;;11.60;99.90;;;;;;4863995;29;20156;-81
2021/05/17 05:53:50;;;;;;;2.55;2.00;;;11.70;99.90;;;;;;4860617;29;20433;-80
2021/05/17 05:56:17;;;;;;;1.37;1.03;;;11.70;99.90;;;;;;4859657;29;20216;-82
2021/05/17 05:58:44;;;;;;;2.67;1.23;;;11.60;99.90;;;;;;4860277;29;20543;-79
2021/05/17 06:04:31;;;;;;;3.13;1.00;;;11.70;99.90;;;;;;4861164;29;20412;-81
2021/05/17 06:06:57;;;;;;;5.77;1.43;;;11.70;99.90;;;;;;4861897;29;20188;-80
2021/05/17 06:09:23;;;;;;;4.23;1.77;;;11.80;99.90;;;;;;4861371;29;20650;-82
2021/05/17 06:11:49;;;;;;;2.33;1.10;;;11.70;99.90;;;;;;4861755;29;20511;-81
2021/05/17 06:14:15;;;;;;;2.20;1.30;;;11.80;99.90;;;;;;4860010;29;20985;-80
2021/05/17 06:16:41;;;;;;;4.60;1.17;;;11.80;99.90;;;;;;4861449;29;20538;-82
2021/05/17 06:19:06;;;;;;;7.43;1.30;;;11.80;99.90;;;;;;4861526;29;20210;-80
2021/05/17 06:21:32;;;;;;;7.40;1.20;;;11.90;99.90;;;;;;4861753;29;20440;-81
2021/05/17 06:23:59;;;;;;;2.40;1.30;;;12.00;99.90;;;;;;4843391;29;20520;-80
2021/05/17 06:26:26;;;;;;;2.60;1.10;;;12.00;99.90;;;;;;4874678;29;20453;-81
2021/05/17 06:28:53;;;;;;;2.08;1.20;;;12.10;99.90;;;;;;4861702;29;20466;-80
2021/05/17 06:31:19;;;;;;;5.10;1.30;;;12.10;99.90;;;;;;4860036;29;20188;-83
2021/05/17 06:33:47;;;;;;;1.90;1.00;;;12.20;99.90;;;;;;4859792;29;20799;-81
2021/05/17 06:36:14;;;;;;;2.30;1.20;;;12.40;99.90;;;;;;4860354;29;20436;-84
2021/05/17 06:38:40;;;;;;;2.73;1.30;;;12.40;99.90;;;;;;4860654;29;20432;-81
2021/05/17 06:41:10;;;;;;;2.60;1.10;;;12.40;99.90;;;;;;4861694;29;20477;-80
2021/05/17 06:43:37;;;;;;;4.70;1.17;;;12.60;99.90;;;;;;4859844;29;20528;-81
2021/05/17 06:46:06;;;;;;;1.70;1.10;;;12.50;99.90;;;;;;4860699;29;20436;-81
2021/05/17 06:48:34;;;;;;;5.90;1.13;;;12.70;99.90;;;;;;4860861;29;20417;-79
2021/05/17 06:50:59;;;;;;;4.17;1.53;;;12.80;99.90;;;;;;4861554;29;20419;-79
2021/05/17 06:53:25;;;;;;;2.33;0.90;;;12.70;99.90;;;;;;4860603;29;20417;-80
2021/05/17 06:56:03;;;;;;;2.97;1.60;;;12.70;99.90;;;;;;4871103;29;20481;-79
2021/05/17 06:58:47;;;;;;;1.43;0.83;;;12.70;99.90;;;;;;4869000;29;20212;-83
2021/05/17 07:01:14;;;;;;;3.50;1.30;;;12.70;99.90;;;;;;4871419;29;20508;-79
2021/05/17 07:03:40;;;;;;;1.43;0.83;;;12.70;99.90;;;;;;4872321;29;21001;-79
2021/05/17 07:06:06;;;;;;;2.70;0.83;;;12.80;99.90;;;;;;4841970;29;20512;-79
2021/05/17 07:11:35;;;;;;;3.13;0.90;;;13.10;99.90;;;;;;4842502;29;20513;-80
2021/05/17 07:14:01;;;;;;;5.33;1.60;;;13.00;99.90;;;;;;4842661;29;20493;-81
2021/05/17 07:16:28;;;;;;;2.33;1.10;;;13.10;99.90;;;;;;4841088;29;20473;-80
2021/05/17 07:18:53;;;;;;;3.70;1.07;;;13.00;99.90;;;;;;4872364;29;20193;-81
2021/05/17 07:23:45;;;;;;;2.80;0.80;;;13.30;99.90;;;;;;4843862;29;20275;-77
2021/05/17 07:26:16;;;;;;;2.30;0.80;;;13.40;99.90;;;;;;4843206;29;20200;-78
2021/05/17 07:28:44;;;;;;;1.67;0.83;;;13.10;99.90;;;;;;4843726;29;20421;-78
2021/05/17 07:31:10;;;;;;;2.70;1.00;;;13.10;99.90;;;;;;4843625;29;20928;-78
2021/05/17 07:33:38;;;;;;;1.77;0.87;;;13.10;99.90;;;;;;4843653;29;20482;-78
2021/05/17 07:36:04;;;;;;;3.13;1.07;;;13.20;99.90;;;;;;4872820;29;20850;-79
2021/05/17 07:38:32;;;;;;;6.67;1.20;;;13.20;99.90;;;;;;4843386;29;20458;-82
2021/05/17 07:40:59;;;;;;;2.93;0.90;;;13.00;99.90;;;;;;4843398;29;20780;-78
2021/05/17 07:43:26;;;;;;;1.67;0.90;;;13.20;99.90;;;;;;4843439;29;20501;-81
2021/05/17 07:45:52;;;;;;;2.40;0.80;;;13.20;99.90;;;;;;4843036;29;20853;-78
2021/05/17 07:48:18;;;;;;;4.40;1.27;;;13.40;99.90;;;;;;4843332;29;20429;-80
2021/05/17 07:50:44;;;;;;;2.67;0.90;;;13.60;99.90;;;;;;4872745;29;20868;-80
2021/05/17 07:53:11;;;;;;;1.77;1.07;;;13.70;99.90;;;;;;4843392;29;20508;-81
2021/05/17 07:55:36;;;;;;;1.00;0.70;;;13.80;99.90;;;;;;4843343;29;20502;-80
2021/05/17 07:58:02;;;;;;;4.93;1.30;;;14.00;99.90;;;;;;4845712;29;20526;-78
2021/05/17 08:00:28;;;;;;;1.93;1.00;;;13.90;99.90;;;;;;4845115;29;20181;-80
2021/05/17 08:02:53;;;;;;;3.10;0.80;;;13.60;99.90;;;;;;4843039;29;20188;-80
2021/05/17 08:05:19;;;;;;;2.17;0.90;;;13.50;99.90;;;;;;4842980;29;20208;-80
2021/05/17 08:07:44;;;;;;;6.50;1.53;;;13.40;99.90;;;;;;4843068;29;20556;-78
2021/05/17 08:10:11;;;;;;;5.07;1.03;;;13.30;99.90;;;;;;4843176;29;20192;-79
2021/05/17 08:12:37;;;;;;;2.40;0.80;;;13.40;99.90;;;;;;4843016;29;20181;-81
2021/05/17 08:15:03;;;;;;;1.47;0.90;;;13.50;99.90;;;;;;4871967;29;20480;-79
2021/05/17 08:17:30;;;;;;;1.23;0.93;;;13.50;99.90;;;;;;4842842;29;20529;-80
2021/05/17 08:19:55;;;;;;;2.63;0.93;;;13.50;99.90;;;;;;4842865;29;20870;-78
2021/05/17 08:22:22;;;;;;;1.13;0.70;;;13.60;99.90;;;;;;4842785;29;20464;-80
2021/05/17 08:24:47;;;;;;;2.90;0.80;;;13.50;99.90;;;;;;4842508;29;20204;-79
2021/05/17 08:27:13;;;;;;;2.30;1.17;;;13.60;99.90;;;;;;4842734;29;20485;-80
2021/05/17 08:29:38;;;;;;;2.13;0.93;;;13.60;99.90;;;;;;4842892;29;20199;-78
2021/05/17 08:32:08;;;;;;;3.53;0.77;;;13.70;99.90;;;;;;4856921;29;20295;-79
2021/05/17 08:34:33;;;;;;;3.67;0.90;;;13.90;99.90;;;;;;4842087;29;20181;-78
2021/05/17 08:37:00;;;;;;;2.90;1.10;;;13.80;99.90;;;;;;4842401;29;20832;-80
2021/05/17 08:39:26;;;;;;;1.53;0.83;;;13.90;99.90;;;;;;4842638;29;20181;-81
2021/05/17 08:41:52;;;;;;;1.00;0.73;;;13.90;99.90;;;;;;4842658;29;20433;-80
2021/05/17 08:44:18;;;;;;;0.90;0.70;;;13.60;99.90;;;;;;4842318;29;20426;-81
2021/05/17 08:46:47;;;;;;;2.73;0.83;;;13.50;99.90;;;;;;4841840;29;20620;-80
2021/05/17 08:49:13;;;;;;;2.10;1.00;;;13.40;99.90;;;;;;4842377;29;20430;-79
2021/05/17 08:51:40;;;;;;;0.83;0.70;;;13.30;99.90;;;;;;4842604;29;20429;-79
2021/05/17 08:54:07;;;;;;;1.83;0.90;;;13.30;99.90;;;;;;4871988;29;20779;-80
2021/05/17 08:56:43;;;;;;;3.37;0.73;;;13.60;99.90;;;;;;4842501;29;20814;-81
2021/05/17 08:59:10;;;;;;;0.80;0.70;;;13.70;99.90;;;;;;4872075;29;20433;-81
2021/05/17 09:01:36;;;;;;;1.10;0.70;;;13.50;99.90;;;;;;4842263;29;20426;-79
2021/05/17 09:04:01;;;;;;;1.23;0.60;;;13.90;99.90;;;;;;4842248;29;20422;-80
2021/05/17 09:06:42;;;;;;;1.23;0.60;;;14.10;99.90;;;;;;4842068;29;20275;-78
2021/05/17 09:09:28;;;;;;;1.33;0.70;;;14.40;99.90;;;;;;4842210;29;20593;-80
2021/05/17 09:12:02;;;;;;;1.73;0.63;;;14.70;99.90;;;;;;4842655;29;20436;-81
2021/05/17 09:14:30;;;;;;;4.13;0.70;;;14.70;99.90;;;;;;4841857;29;20449;-78
2021/05/17 09:17:02;;;;;;;2.10;0.70;;;14.60;99.90;;;;;;4842356;29;20552;-82
2021/05/17 09:19:29;;;;;;;1.63;0.90;;;14.60;99.90;;;;;;4871787;29;20437;-80
2021/05/17 09:22:08;;;;;;;3.80;0.97;;;15.00;99.90;;;;;;4842274;29;20438;-80
2021/05/17 09:24:34;;;;;;;1.17;0.70;;;15.40;99.90;;;;;;4842016;29;20477;-81
2021/05/17 09:27:00;;;;;;;2.07;0.90;;;15.60;99.90;;;;;;4871794;29;20417;-80
2021/05/17 09:29:27;;;;;;;1.80;1.00;;;15.80;99.90;;;;;;4842226;29;20441;-81
2021/05/17 09:31:53;;;;;;;2.80;0.90;;;15.30;99.90;;;;;;4871448;29;20453;-79
2021/05/17 09:34:33;;;;;;;2.10;0.87;;;15.10;99.90;;;;;;4841983;29;20839;-79
2021/05/17 09:37:02;;;;;;;5.80;2.07;;;15.30;99.90;;;;;;4842208;29;20461;-80
2021/05/17 09:39:28;;;;;;;1.77;0.93;;;15.20;99.90;;;;;;4842026;29;20422;-79
2021/05/17 09:41:56;;;;;;;2.57;0.97;;;15.20;99.90;;;;;;4842048;29;20478;-81
2021/05/17 09:44:28;;;;;;;2.03;0.80;;;15.40;99.90;;;;;;4841721;29;20264;-82
2021/05/17 09:47:08;;;;;;;2.30;1.10;;;15.10;99.90;;;;;;4842057;29;20433;-81
2021/05/17 09:49:51;;;;;;;3.23;0.80;;;14.80;99.90;;;;;;4841964;29;20422;-81
2021/05/17 09:52:31;;;;;;;1.27;0.70;;;14.90;99.90;;;;;;4842070;29;20512;-77
2021/05/17 09:55:04;;;;;;;1.40;0.80;;;15.00;99.90;;;;;;4841648;29;20478;-79
2021/05/17 09:57:34;;;;;;;2.63;1.13;;;15.20;99.90;;;;;;4843033;29;20835;-80
2021/05/17 10:00:26;;;;;;;1.40;0.87;;;15.00;99.90;;;;;;4874811;29;20430;-79
2021/05/17 10:02:56;;;;;;;2.70;0.90;;;15.20;99.90;;;;;;4858681;29;20919;-80
2021/05/17 10:05:26;;;;;;;3.10;1.20;;;15.40;99.90;;;;;;4844840;29;20453;-83
2021/05/17 10:07:53;;;;;;;3.50;0.90;;;15.80;99.90;;;;;;4843733;29;20931;-82
2021/05/17 10:10:22;;;;;;;1.00;0.70;;;15.60;99.90;;;;;;4845272;29;20422;-80
2021/05/17 10:12:48;;;;;;;2.70;0.90;;;15.30;99.90;;;;;;4845111;29;20455;-77
2021/05/17 10:15:16;;;;;;;1.33;0.93;;;15.00;99.90;;;;;;4844396;29;20509;-80
2021/05/17 10:17:43;;;;;;;1.73;0.60;;;15.00;99.90;;;;;;4844704;29;20470;-80
2021/05/17 10:20:13;;;;;;;1.20;1.00;;;14.80;99.90;;;;;;4844989;29;20422;-79
2021/05/17 10:22:40;;;;;;;2.20;0.70;;;14.60;99.90;;;;;;4844925;29;20418;-83
2021/05/17 10:25:08;;;;;;;2.20;0.80;;;14.10;99.90;;;;;;4844462;29;20457;-78
2021/05/17 10:27:40;;;;;;;1.33;0.70;;;13.30;99.90;;;;;;4845136;29;20436;-79
2021/05/17 10:30:09;;;;;;;1.00;0.60;;;13.00;99.90;;;;;;4844923;29;20901;-81
2021/05/17 10:32:41;;;;;;;4.13;1.00;;;12.70;99.90;;;;;;4858923;29;20440;-80
2021/05/17 10:35:18;;;;;;;1.77;0.90;;;13.00;99.90;;;;;;4844319;29;20445;-81
2021/05/17 10:37:46;;;;;;;1.57;0.77;;;12.90;99.90;;;;;;4844620;29;20476;-82
2021/05/17 10:40:38;;;;;;;5.70;1.00;;;12.90;99.90;;;;;;4844499;29;20428;-78
2021/05/17 10:43:30;;;;;;;1.47;1.10;;;13.00;99.90;;;;;;4844504;29;20779;-82
2021/05/17 10:49:33;;;;;;;2.50;0.90;;;13.30;99.90;;;;;;4844793;29;20446;-78
2021/05/17 10:52:09;;;;;;;4.73;0.93;;;13.60;99.90;;;;;;4844308;29;20426;-81
2021/05/17 10:54:41;;;;;;;0.70;0.50;;;13.40;99.90;;;;;;4844191;29;20787;-78
2021/05/17 10:57:20;;;;;;;0.93;0.50;;;13.60;99.90;;;;;;4844350;29;20978;-79
2021/05/17 11:02:34;;;;;;;1.47;0.80;;;13.80;99.90;;;;;;4844539;29;20409;-78
2021/05/17 11:05:19;;;;;;;2.13;0.70;;;13.60;99.90;;;;;;4844001;29;20449;-81
2021/05/17 11:07:45;;;;;;;1.93;1.13;;;13.40;99.90;;;;;;4844252;29;20425;-79
2021/05/17 11:10:21;;;;;;;1.93;0.87;;;13.40;99.90;;;;;;4843578;29;20426;-80
2021/05/17 11:13:17;;;;;;;3.03;0.67;;;13.40;99.90;;;;;;4844114;29;20674;-79
2021/05/17 11:15:54;;;;;;;0.80;0.60;;;13.30;99.90;;;;;;4843967;29;20476;-78
2021/05/17 11:18:32;;;;;;;5.13;1.00;;;13.00;99.90;;;;;;4845000;29;20473;-81
2021/05/17 11:21:21;;;;;;;0.90;0.80;;;12.80;99.90;;;;;;4877976;29;20911;-79
2021/05/17 11:23:50;;;;;;;0.97;0.60;;;12.50;99.90;;;;;;4846604;29;20421;-81
2021/05/17 11:26:17;;;;;;;1.63;0.88;;;12.40;99.90;;;;;;4843607;29;20798;-81
2021/05/17 11:28:43;;;;;;;0.90;0.67;;;12.60;99.90;;;;;;4843748;29;20273;-78
2021/05/17 11:31:17;;;;;;;1.47;0.97;;;12.50;99.90;;;;;;4843787;29;20459;-80
2021/05/17 11:33:58;;;;;;;1.10;0.80;;;12.50;99.90;;;;;;4843796;29;20191;-80
2021/05/17 11:36:28;;;;;;;2.03;0.67;;;12.30;99.90;;;;;;4843272;29;20228;-81
2021/05/17 11:39:11;;;;;;;2.25;0.98;;;12.40;99.90;;;;;;4843461;29;20437;-80
2021/05/17 11:41:36;;;;;;;4.03;1.00;;;12.30;99.90;;;;;;4843605;29;20180;-80
2021/05/17 11:44:07;;;;;;;2.60;0.87;;;12.30;99.90;;;;;;4843480;29;20229;-82
2021/05/17 11:46:49;;;;;;;2.30;1.30;;;12.40;99.90;;;;;;4843239;29;20307;-83
2021/05/17 11:49:20;;;;;;;2.17;0.80;;;12.50;99.90;;;;;;4843385;29;20181;-81
2021/05/17 11:51:47;;;;;;;0.80;0.70;;;12.50;99.90;;;;;;4843537;29;20417;-80
2021/05/17 11:54:13;;;;;;;1.50;0.80;;;12.60;99.90;;;;;;4843103;29;20564;-81
2021/05/17 11:56:45;;;;;;;1.87;0.93;;;12.70;99.90;;;;;;4843128;29;20201;-80
2021/05/17 11:59:20;;;;;;;2.20;0.85;;;12.80;99.90;;;;;;4872942;29;20812;-81
2021/05/17 12:01:54;;;;;;;1.63;1.10;;;13.00;99.90;;;;;;4870495;29;20195;-81
2021/05/17 12:04:36;;;;;;;2.17;1.20;;;13.10;99.90;;;;;;4843139;29;20464;-82
2021/05/17 12:07:12;;;;;;;0.70;0.70;;;13.10;99.90;;;;;;4841931;29;20452;-83
2021/05/17 12:09:47;;;;;;;2.33;0.80;;;13.30;99.90;;;;;;4841047;29;20465;-83
2021/05/17 12:12:17;;;;;;;1.40;0.83;;;13.30;99.90;;;;;;4841992;29;20505;-84
2021/05/17 12:14:48;;;;;;;1.37;0.83;;;13.20;99.90;;;;;;4840824;29;20541;-79
2021/05/17 12:17:20;;;;;;;2.60;0.90;;;13.20;99.90;;;;;;4841375;29;20458;-81
2021/05/17 12:19:55;;;;;;;2.20;1.30;;;13.60;99.90;;;;;;4841376;29;20946;-80
2021/05/17 12:22:33;;;;;;;2.17;0.80;;;13.70;99.90;;;;;;4855406;29;20931;-80
2021/05/17 12:25:00;;;;;;;2.60;0.70;;;14.30;99.90;;;;;;4840361;29;20505;-79
2021/05/17 12:27:26;;;;;;;1.10;0.80;;;14.50;99.90;;;;;;4840333;29;20425;-81
2021/05/17 12:30:00;;;;;;;1.70;1.10;;;14.60;99.90;;;;;;4855417;29;20437;-81
2021/05/17 12:32:36;;;;;;;2.10;0.90;;;14.50;99.90;;;;;;4854992;29;20450;-79
2021/05/17 12:35:21;;;;;;;1.20;1.10;;;14.30;99.90;;;;;;4855115;29;20453;-81
2021/05/17 12:37:52;;;;;;;4.47;2.50;;;14.10;99.90;;;;;;4840320;29;20512;-79
2021/05/17 12:40:22;;;;;;;3.83;1.67;;;14.00;99.90;;;;;;4841196;29;20433;-79
2021/05/17 12:43:07;;;;;;;3.97;1.80;;;13.80;99.90;;;;;;4840951;29;20418;-79
2021/05/17 12:45:36;;;;;;;2.80;0.90;;;13.40;99.90;;;;;;4840501;29;20438;-78
2021/05/17 12:48:08;;;;;;;6.70;1.85;;;12.80;99.90;;;;;;4855139;29;20452;-79
2021/05/17 12:50:34;;;;;;;3.10;1.83;;;12.60;99.90;;;;;;4841236;29;20204;-79
2021/05/17 12:53:10;;;;;;;3.37;1.77;;;12.50;99.90;;;;;;4840171;29;20437;-79
2021/05/17 12:55:39;;;;;;;2.55;1.98;;;12.30;99.90;;;;;;4840557;29;20450;-79
2021/05/17 12:58:06;;;;;;;5.37;2.57;;;12.40;99.90;;;;;;4840877;29;20220;-80
2021/05/17 13:00:40;;;;;;;3.03;2.00;;;12.40;99.90;;;;;;4844393;29;20433;-78
2021/05/17 13:03:12;;;;;;;3.90;1.80;;;12.40;99.90;;;;;;4841259;29;20525;-80
2021/05/17 13:06:07;;;;;;;2.90;2.00;;;12.50;99.90;;;;;;4865160;29;20204;-81
2021/05/17 13:08:36;;;;;;;4.40;2.40;;;13.00;99.90;;;;;;4864900;29;20432;-79
2021/05/17 13:11:04;;;;;;;5.23;2.13;;;13.30;99.90;;;;;;4859144;29;20464;-80
2021/05/17 13:13:42;;;;;;;2.77;2.20;;;13.50;99.90;;;;;;4858844;29;20581;-80
2021/05/17 13:16:29;;;;;;;3.20;2.03;;;13.50;99.90;;;;;;4858532;29;20464;-78
2021/05/17 13:18:56;;;;;;;2.30;2.07;;;13.70;99.90;;;;;;4858842;29;20821;-79
2021/05/17 13:21:35;;;;;;;2.63;2.43;;;14.30;99.90;;;;;;4859241;29;21041;-79
2021/05/17 13:32:09;;;;;;;2.37;1.40;;;14.60;99.90;;;;;;4860073;29;20802;-80
2021/05/17 13:34:35;;;;;;;3.10;1.60;;;14.20;99.90;;;;;;4876204;29;20522;-79
2021/05/17 13:37:01;;;;;;;2.43;1.47;;;13.40;99.90;;;;;;4861876;29;20224;-79
2021/05/17 13:39:26;;;;;;;3.03;2.00;;;12.70;99.90;;;;;;4861758;29;20199;-79
2021/05/17 13:41:52;;;;;;;4.60;2.37;;;12.20;99.90;;;;;;4862643;29;20192;-79